Dunfermline, Illinois
Current Conditions -  °F | °C
As of 6:54 AM on Monday 20 Oct 2014 (Local Time) from KPIA Reporting Station
Clear Clear  
Wind Chill: 47°   Ceiling: Unl
Heat Index: 49°   Visibility: 10mi
Dew Point: 45°   Wind: 6mph
Humidity: 86%   Direction: 240°WSW
Pressure: 29.88"   Gusts: NA
Location:  40.49°N, 90.03°W
Report Text: KPIA 201154Z 24005KT 10SM CLR 09/07 A2988 RMK AO2 SLP120 T00940072 10106 20089 53000
Loading
Personal Weather Stations






























Interactive Weather Map
Tropical Storm Tracking
New forecast layout! Learn more

10-Day Weather Forecast

Advertisements
Track Severe Weather on mobile